Time;durP1;ratioP1;P1;durP2;ratioP2;P2;SDS_P1;SDS_P2;PMS_P1;PMS_P2;Temp;Humidity;BMP_temperature;BMP_pressure;BME280_temperature;BME280_humidity;BME280_pressure;Samples;Min_cycle;Max_cycle;Signal;HPM_P1;HPM_P2
2023/04/30 00:01:43;;;;;;;23.85;16.02;;;9.00;99.90;;;;;;5056159;28;20032;-91
2023/04/30 00:04:09;;;;;;;24.10;14.90;;;8.90;99.90;;;;;;5056921;28;20029;-90
2023/04/30 00:06:34;;;;;;;27.58;14.70;;;9.00;99.90;;;;;;5068394;28;20028;-90
2023/04/30 00:09:00;;;;;;;25.98;16.40;;;9.00;99.90;;;;;;5054554;28;20032;-90
2023/04/30 00:11:26;;;;;;;24.35;15.10;;;9.00;99.90;;;;;;5062013;28;20036;-90
2023/04/30 00:13:52;;;;;;;30.73;16.88;;;9.00;99.90;;;;;;5069919;28;20033;-90
2023/04/30 00:16:18;;;;;;;25.70;16.08;;;8.90;99.90;;;;;;5054916;28;20368;-89
2023/04/30 00:18:44;;;;;;;28.38;15.65;;;8.90;99.90;;;;;;5055362;28;20033;-90
2023/04/30 00:21:10;;;;;;;23.67;15.80;;;8.90;99.90;;;;;;5051785;28;20039;-90
2023/04/30 00:23:36;;;;;;;27.45;16.75;;;9.00;99.90;;;;;;5063155;28;20036;-90
2023/04/30 00:26:01;;;;;;;24.42;16.23;;;8.90;99.90;;;;;;5056767;28;20505;-90
2023/04/30 00:28:27;;;;;;;23.90;16.40;;;8.90;99.90;;;;;;5048922;28;20060;-89
2023/04/30 00:30:53;;;;;;;27.67;16.10;;;8.90;99.90;;;;;;5040343;28;20083;-90
2023/04/30 00:33:19;;;;;;;24.98;17.10;;;8.90;99.90;;;;;;5049167;28;20032;-89
2023/04/30 00:35:45;;;;;;;23.90;15.65;;;8.90;99.90;;;;;;5056547;28;20036;-90
2023/04/30 00:38:11;;;;;;;23.35;15.82;;;8.90;99.90;;;;;;5056407;28;20629;-89
2023/04/30 00:40:41;;;;;;;25.63;15.73;;;8.90;99.90;;;;;;5052210;28;20040;-90
2023/04/30 00:43:06;;;;;;;26.08;15.93;;;8.90;99.90;;;;;;5064900;28;20051;-90
2023/04/30 00:45:32;;;;;;;22.85;15.35;;;8.90;99.90;;;;;;5056408;28;20051;-90
2023/04/30 00:47:58;;;;;;;23.55;14.90;;;8.80;99.90;;;;;;5047948;28;20021;-90
2023/04/30 00:50:24;;;;;;;23.65;15.65;;;8.80;99.90;;;;;;5055158;28;20078;-89
2023/04/30 00:52:50;;;;;;;27.95;16.15;;;8.80;99.90;;;;;;5072722;28;20537;-90
2023/04/30 00:55:22;;;;;;;27.95;15.82;;;8.80;99.90;;;;;;5054210;28;20025;-90
2023/04/30 00:57:48;;;;;;;28.80;17.13;;;8.80;99.90;;;;;;5059983;28;20081;-90
2023/04/30 01:00:14;;;;;;;24.30;16.30;;;8.80;99.90;;;;;;5074749;28;20754;-90
2023/04/30 01:02:40;;;;;;;24.58;16.73;;;8.80;99.90;;;;;;5061013;28;20085;-90
2023/04/30 01:05:06;;;;;;;26.48;16.35;;;8.80;99.90;;;;;;5075267;28;20226;-90
2023/04/30 01:07:43;;;;;;;30.38;18.08;;;8.80;99.90;;;;;;5063267;28;20024;-89
2023/04/30 01:10:11;;;;;;;23.00;16.65;;;8.70;99.90;;;;;;5045596;28;20025;-90
2023/04/30 01:12:43;;;;;;;27.00;17.38;;;8.70;99.90;;;;;;5053453;28;20068;-90
2023/04/30 01:15:30;;;;;;;25.48;16.88;;;8.70;99.90;;;;;;5058469;28;20025;-90
2023/04/30 01:18:11;;;;;;;32.03;19.40;;;8.60;99.90;;;;;;5077715;28;20039;-89
2023/04/30 01:20:42;;;;;;;30.77;17.90;;;8.70;99.90;;;;;;5053603;28;20548;-90
2023/04/30 01:23:31;;;;;;;30.48;18.27;;;8.70;99.90;;;;;;5047118;28;20297;-90
2023/04/30 01:26:09;;;;;;;25.20;17.08;;;8.60;99.90;;;;;;5059853;28;20052;-89
2023/04/30 01:28:37;;;;;;;26.38;17.63;;;8.60;99.90;;;;;;5057062;28;20025;-89
2023/04/30 01:31:43;;;;;;;32.78;17.73;;;8.60;99.90;;;;;;5075828;28;20028;-89
2023/04/30 01:34:10;;;;;;;27.42;18.00;;;8.60;99.90;;;;;;5055009;28;20025;-90
2023/04/30 01:37:21;;;;;;;24.77;16.95;;;8.60;99.90;;;;;;5061755;28;20033;-89
2023/04/30 01:40:23;;;;;;;27.42;16.70;;;8.60;99.90;;;;;;5051178;28;20036;-90
2023/04/30 01:43:00;;;;;;;30.65;17.70;;;8.60;99.90;;;;;;5048419;28;20043;-88
2023/04/30 01:45:42;;;;;;;31.55;17.85;;;8.60;99.90;;;;;;5058820;28;20028;-90
2023/04/30 01:48:29;;;;;;;30.40;18.27;;;8.60;99.90;;;;;;5045436;28;20351;-89
2023/04/30 01:51:28;;;;;;;33.10;20.75;;;8.60;99.90;;;;;;5064171;28;20032;-90
2023/04/30 01:53:58;;;;;;;34.78;18.58;;;8.60;99.90;;;;;;5064267;28;20021;-90
2023/04/30 01:56:31;;;;;;;29.33;19.27;;;8.60;99.90;;;;;;5056638;28;20021;-90
2023/04/30 01:58:59;;;;;;;25.70;16.88;;;8.60;99.90;;;;;;5065149;28;20103;-89
2023/04/30 02:01:30;;;;;;;28.90;19.35;;;8.60;99.90;;;;;;5052724;28;20032;-89
2023/04/30 02:03:57;;;;;;;30.65;17.75;;;8.60;99.90;;;;;;5065055;28;20040;-91
2023/04/30 02:06:30;;;;;;;34.28;17.70;;;8.60;99.90;;;;;;5064031;28;20025;-90
2023/04/30 02:09:01;;;;;;;29.75;18.48;;;8.60;99.90;;;;;;5054719;28;20052;-90
2023/04/30 02:11:28;;;;;;;32.28;18.80;;;8.60;99.90;;;;;;5067288;28;20025;-89
2023/04/30 02:13:54;;;;;;;31.10;18.95;;;8.60;99.90;;;;;;5058853;28;20103;-90
2023/04/30 02:16:20;;;;;;;27.38;18.63;;;8.60;99.90;;;;;;5045196;28;20032;-89
2023/04/30 02:18:46;;;;;;;34.55;19.33;;;8.50;99.90;;;;;;5059169;28;20033;-89
2023/04/30 02:21:13;;;;;;;26.83;18.35;;;8.60;99.90;;;;;;5057139;28;20029;-90
2023/04/30 02:23:39;;;;;;;33.33;19.33;;;8.50;99.90;;;;;;5061341;28;20028;-89
2023/04/30 02:26:05;;;;;;;32.25;18.73;;;8.50;99.90;;;;;;5058105;28;20048;-90
2023/04/30 02:28:30;;;;;;;34.15;20.30;;;8.50;99.90;;;;;;5060399;28;20023;-91
2023/04/30 02:30:56;;;;;;;32.72;20.38;;;8.50;99.90;;;;;;5059040;28;20029;-89
2023/04/30 02:33:22;;;;;;;31.92;20.88;;;8.50;99.90;;;;;;5058267;28;20095;-90
2023/04/30 02:35:48;;;;;;;28.10;19.38;;;8.50;99.90;;;;;;5058738;28;20459;-89
2023/04/30 02:38:13;;;;;;;34.92;20.73;;;8.50;99.90;;;;;;5049041;28;20028;-88
2023/04/30 02:40:41;;;;;;;29.02;18.67;;;8.50;99.90;;;;;;5068748;28;20050;-89
2023/04/30 02:43:07;;;;;;;33.28;20.63;;;8.50;99.90;;;;;;5066976;28;20035;-90
2023/04/30 02:45:33;;;;;;;34.78;21.30;;;8.50;99.90;;;;;;5057548;28;20024;-90
2023/04/30 02:47:58;;;;;;;33.55;20.10;;;8.50;99.90;;;;;;5058961;28;20117;-89
2023/04/30 02:50:24;;;;;;;34.08;20.75;;;8.50;99.90;;;;;;5075356;28;20828;-90
2023/04/30 02:52:50;;;;;;;31.42;20.67;;;8.50;99.90;;;;;;5057935;28;20025;-89
2023/04/30 02:55:16;;;;;;;36.72;20.40;;;8.50;99.90;;;;;;5058699;28;20028;-89
2023/04/30 02:57:41;;;;;;;32.67;19.00;;;8.40;99.90;;;;;;5057862;28;20029;-90
2023/04/30 03:00:08;;;;;;;36.00;20.27;;;8.40;99.90;;;;;;5073719;28;20041;-91
2023/04/30 03:02:34;;;;;;;37.33;20.90;;;8.50;99.90;;;;;;5051556;28;20020;-90
2023/04/30 03:05:01;;;;;;;36.47;20.00;;;8.40;99.90;;;;;;5060955;28;20028;-90
2023/04/30 03:07:27;;;;;;;33.20;20.50;;;8.40;99.90;;;;;;5058261;28;20016;-89
2023/04/30 03:09:52;;;;;;;40.67;23.33;;;8.40;99.90;;;;;;5072266;28;20161;-91
2023/04/30 03:12:19;;;;;;;32.03;20.38;;;8.30;99.90;;;;;;5074907;28;20028;-90
2023/04/30 03:14:44;;;;;;;37.75;22.35;;;8.30;99.90;;;;;;5074224;28;20017;-90
2023/04/30 03:17:10;;;;;;;36.25;20.90;;;8.40;99.90;;;;;;5057680;28;20048;-91
2023/04/30 03:19:36;;;;;;;35.85;21.75;;;8.30;99.90;;;;;;5073796;28;20033;-90
2023/04/30 03:22:02;;;;;;;36.85;20.77;;;8.30;99.90;;;;;;5065726;28;20074;-89
2023/04/30 03:24:28;;;;;;;35.28;19.80;;;8.30;99.90;;;;;;5058021;28;20078;-90
2023/04/30 03:26:53;;;;;;;32.90;20.00;;;8.30;99.90;;;;;;5074723;28;20388;-90
2023/04/30 03:29:19;;;;;;;36.25;22.38;;;8.40;99.90;;;;;;5039348;28;20086;-91
2023/04/30 03:31:45;;;;;;;32.35;21.25;;;8.30;99.90;;;;;;5060765;28;20784;-89
2023/04/30 03:34:14;;;;;;;35.58;21.50;;;8.30;99.90;;;;;;5058144;28;20100;-90
2023/04/30 03:36:39;;;;;;;36.03;21.30;;;8.30;99.90;;;;;;5064652;28;20333;-89
2023/04/30 03:39:06;;;;;;;33.33;20.33;;;8.30;99.90;;;;;;5089406;28;20055;-90
2023/04/30 03:41:32;;;;;;;35.58;21.85;;;8.30;99.90;;;;;;5077959;28;20029;-90
2023/04/30 03:43:58;;;;;;;30.38;21.52;;;8.30;99.90;;;;;;5070502;28;20035;-87
2023/04/30 03:46:23;;;;;;;39.25;22.48;;;8.30;99.90;;;;;;5076720;28;20418;-89
2023/04/30 03:48:49;;;;;;;32.40;22.20;;;8.30;99.90;;;;;;5058107;28;20035;-90
2023/04/30 03:51:15;;;;;;;31.35;20.90;;;8.30;99.90;;;;;;5054432;28;20032;-89
2023/04/30 03:53:41;;;;;;;35.65;21.85;;;8.30;99.90;;;;;;5055097;28;20068;-89
2023/04/30 03:56:07;;;;;;;35.67;22.27;;;8.30;99.90;;;;;;5045527;28;20041;-90
2023/04/30 03:58:32;;;;;;;36.08;22.63;;;8.20;99.90;;;;;;5062492;28;20056;-90
2023/04/30 04:00:58;;;;;;;33.53;22.15;;;8.30;99.90;;;;;;5056791;28;20024;-90
2023/04/30 04:03:24;;;;;;;37.95;22.25;;;8.30;99.90;;;;;;5073103;28;20024;-90
2023/04/30 04:05:50;;;;;;;32.70;22.05;;;8.30;99.90;;;;;;5050857;28;20024;-89
2023/04/30 04:08:17;;;;;;;36.78;22.95;;;8.20;99.90;;;;;;5069079;28;20108;-92
2023/04/30 04:10:43;;;;;;;36.58;23.27;;;8.20;99.90;;;;;;5077114;28;20032;-91
2023/04/30 04:13:10;;;;;;;37.05;23.50;;;8.20;99.90;;;;;;5063531;28;20024;-92
2023/04/30 04:15:36;;;;;;;43.95;22.85;;;8.20;99.90;;;;;;5067457;28;20050;-92
2023/04/30 04:18:03;;;;;;;36.38;22.48;;;8.20;99.90;;;;;;5075045;28;20024;-92
2023/04/30 04:20:32;;;;;;;35.28;23.58;;;8.20;99.90;;;;;;5072031;28;20088;-90
2023/04/30 04:22:58;;;;;;;43.67;23.33;;;8.20;99.90;;;;;;5065224;28;20024;-92
2023/04/30 04:25:26;;;;;;;37.20;22.77;;;8.20;99.90;;;;;;5085585;28;20059;-92
2023/04/30 04:27:52;;;;;;;39.33;23.65;;;8.20;99.90;;;;;;5057601;28;20174;-91
2023/04/30 04:30:18;;;;;;;38.67;22.38;;;8.30;99.90;;;;;;5065145;28;20032;-92
2023/04/30 04:32:48;;;;;;;38.80;22.70;;;8.30;99.90;;;;;;5069781;28;20033;-92
2023/04/30 04:35:15;;;;;;;41.78;22.55;;;8.30;99.90;;;;;;5066633;28;20090;-91
2023/04/30 04:37:41;;;;;;;35.65;21.60;;;8.30;99.90;;;;;;5059794;28;20021;-91
2023/04/30 04:40:08;;;;;;;34.42;22.20;;;8.30;99.90;;;;;;5070217;28;20043;-91
2023/04/30 04:42:34;;;;;;;35.58;23.13;;;8.30;99.90;;;;;;5058154;28;20028;-92
2023/04/30 04:45:02;;;;;;;38.28;23.48;;;8.30;99.90;;;;;;5058732;28;20070;-93
2023/04/30 04:47:29;;;;;;;34.40;22.05;;;8.40;99.90;;;;;;5055759;28;20083;-92
2023/04/30 04:49:55;;;;;;;34.25;21.98;;;8.40;99.90;;;;;;5061629;28;20049;-92
2023/04/30 04:52:20;;;;;;;37.75;22.80;;;8.40;99.90;;;;;;5058871;28;20067;-93
2023/04/30 04:54:46;;;;;;;36.30;21.95;;;8.40;99.90;;;;;;5057219;28;20032;-92
2023/04/30 04:57:12;;;;;;;36.42;21.15;;;8.40;99.90;;;;;;5072086;28;20032;-93
2023/04/30 04:59:38;;;;;;;36.15;21.05;;;8.40;99.90;;;;;;5052610;28;20380;-93
2023/04/30 05:02:04;;;;;;;33.75;22.42;;;8.40;99.90;;;;;;5056990;28;20016;-93
2023/04/30 05:04:30;;;;;;;36.20;20.80;;;8.40;99.90;;;;;;5060389;28;20033;-92
2023/04/30 05:06:55;;;;;;;34.28;21.05;;;8.40;99.90;;;;;;5052855;28;20376;-93
2023/04/30 05:09:36;;;;;;;33.78;21.23;;;8.50;99.90;;;;;;5057394;28;20109;-91
2023/04/30 05:12:03;;;;;;;32.13;19.83;;;8.50;99.90;;;;;;5046965;28;20461;-93
2023/04/30 05:14:28;;;;;;;31.90;22.13;;;8.50;99.90;;;;;;5054231;28;20033;-92
2023/04/30 05:16:54;;;;;;;31.30;21.10;;;8.60;99.90;;;;;;5058047;28;20028;-92
2023/04/30 05:19:21;;;;;;;29.55;20.45;;;8.70;99.90;;;;;;5041825;28;20035;-93
2023/04/30 05:21:46;;;;;;;34.05;20.85;;;8.70;99.90;;;;;;5057513;28;20074;-91
2023/04/30 05:24:12;;;;;;;36.35;21.73;;;8.70;99.90;;;;;;5056702;28;20029;-93
2023/04/30 05:26:38;;;;;;;39.65;20.63;;;8.80;99.90;;;;;;5059517;28;20025;-93
2023/04/30 05:29:03;;;;;;;35.58;22.05;;;8.80;99.90;;;;;;5043466;28;20017;-92
2023/04/30 05:31:31;;;;;;;34.22;20.95;;;8.90;99.90;;;;;;5054343;28;20035;-92
2023/04/30 05:33:56;;;;;;;37.22;20.70;;;9.00;99.90;;;;;;5043420;28;20040;-93
2023/04/30 05:36:22;;;;;;;29.88;19.50;;;9.10;99.90;;;;;;5058694;28;20384;-92
2023/04/30 05:38:48;;;;;;;32.88;19.55;;;9.10;99.90;;;;;;5057381;28;20060;-92
2023/04/30 05:45:01;;;;;;;37.22;20.92;;;9.20;99.90;;;;;;5064864;28;20076;-92
2023/04/30 05:47:27;;;;;;;31.10;20.20;;;9.40;99.90;;;;;;5069129;28;20561;-92
2023/04/30 05:49:53;;;;;;;29.52;18.58;;;9.40;99.90;;;;;;5071715;28;20032;-93
2023/04/30 05:52:19;;;;;;;26.67;18.70;;;9.40;99.90;;;;;;5060276;28;20514;-92
2023/04/30 05:54:46;;;;;;;29.52;18.33;;;9.50;99.90;;;;;;5062208;28;20021;-92
2023/04/30 05:57:12;;;;;;;28.20;17.90;;;9.50;99.90;;;;;;5058654;28;20113;-92
2023/04/30 05:59:38;;;;;;;28.88;18.50;;;9.60;99.90;;;;;;5059317;28;20028;-92
2023/04/30 06:02:04;;;;;;;27.60;18.08;;;9.80;99.90;;;;;;5078448;28;20043;-92
2023/04/30 06:04:30;;;;;;;27.23;17.77;;;9.90;99.90;;;;;;5050325;28;20025;-93
2023/04/30 06:06:56;;;;;;;28.23;19.52;;;9.90;99.90;;;;;;5060647;28;20042;-91
2023/04/30 06:09:21;;;;;;;26.35;18.45;;;9.90;99.90;;;;;;5044155;28;20036;-92
2023/04/30 06:11:50;;;;;;;29.75;18.35;;;10.10;99.90;;;;;;5053957;28;20024;-93
2023/04/30 06:14:17;;;;;;;28.90;17.80;;;10.00;99.90;;;;;;5061265;28;20438;-92
2023/04/30 06:16:46;;;;;;;26.63;17.92;;;10.10;99.90;;;;;;5058288;28;20062;-93
2023/04/30 06:19:12;;;;;;;28.77;17.08;;;10.00;99.90;;;;;;5071329;28;20028;-92
2023/04/30 06:21:37;;;;;;;27.02;16.98;;;10.10;99.90;;;;;;5060845;28;20495;-90
2023/04/30 06:24:04;;;;;;;27.73;17.98;;;10.10;99.90;;;;;;5060128;28;20028;-91
2023/04/30 06:26:31;;;;;;;30.30;16.13;;;10.20;99.90;;;;;;5061231;28;20024;-92
2023/04/30 06:28:56;;;;;;;23.58;15.80;;;10.30;99.90;;;;;;5058395;28;20025;-92
2023/04/30 06:31:23;;;;;;;26.98;15.90;;;10.60;99.90;;;;;;5075212;28;20491;-92
2023/04/30 06:33:49;;;;;;;21.23;14.63;;;10.80;99.90;;;;;;5061695;28;20033;-92
2023/04/30 06:36:15;;;;;;;25.13;14.63;;;11.00;99.90;;;;;;5055761;28;20059;-91
2023/04/30 06:38:42;;;;;;;23.52;15.25;;;10.90;99.90;;;;;;5057447;28;20055;-90
2023/04/30 06:41:08;;;;;;;22.85;15.07;;;10.70;99.90;;;;;;5056984;28;20052;-92
2023/04/30 06:43:34;;;;;;;26.80;16.23;;;10.50;99.90;;;;;;5054419;28;20036;-91
2023/04/30 06:46:00;;;;;;;27.27;15.25;;;10.60;99.90;;;;;;5060633;28;20027;-92
2023/04/30 06:48:25;;;;;;;23.15;16.00;;;10.70;99.90;;;;;;5057343;28;20028;-93
2023/04/30 06:50:51;;;;;;;24.65;15.02;;;10.70;99.90;;;;;;5051006;28;20461;-92
2023/04/30 06:53:17;;;;;;;25.75;15.38;;;10.70;99.90;;;;;;5057627;28;20028;-91
2023/04/30 06:55:45;;;;;;;22.88;14.00;;;10.70;99.90;;;;;;5050175;28;20064;-91
2023/04/30 06:58:11;;;;;;;23.70;14.18;;;10.70;99.90;;;;;;5060171;28;20120;-92
2023/04/30 07:00:37;;;;;;;23.45;14.25;;;10.60;99.90;;;;;;5060842;28;20048;-91
2023/04/30 07:03:03;;;;;;;22.33;14.82;;;10.50;99.90;;;;;;5061091;28;20031;-93
2023/04/30 07:05:30;;;;;;;21.88;14.25;;;10.60;99.90;;;;;;5080110;28;20028;-92
2023/04/30 07:07:56;;;;;;;23.48;14.38;;;10.60;99.90;;;;;;5081781;28;20013;-91
2023/04/30 07:10:22;;;;;;;25.33;14.73;;;10.70;99.90;;;;;;5086347;28;20012;-92
2023/04/30 07:12:48;;;;;;;22.75;13.93;;;10.70;99.90;;;;;;5061388;28;20102;-93
2023/04/30 07:15:14;;;;;;;25.83;14.27;;;10.70;99.90;;;;;;5049955;28;20028;-94
2023/04/30 07:17:40;;;;;;;25.25;14.90;;;10.70;99.90;;;;;;5057892;28;20472;-91
2023/04/30 07:20:07;;;;;;;21.02;13.25;;;10.70;99.90;;;;;;5057010;28;20070;-93
2023/04/30 07:22:34;;;;;;;18.77;14.27;;;10.70;99.90;;;;;;5073207;28;20035;-91
2023/04/30 07:25:00;;;;;;;19.90;14.27;;;10.80;99.90;;;;;;5057431;28;20036;-93
2023/04/30 07:27:27;;;;;;;23.23;13.77;;;10.80;99.90;;;;;;5049889;28;20040;-94
2023/04/30 07:29:53;;;;;;;21.20;14.55;;;10.90;99.90;;;;;;5060393;28;20391;-93
2023/04/30 07:32:19;;;;;;;24.15;14.38;;;10.80;99.90;;;;;;5047181;28;20479;-93
2023/04/30 07:34:45;;;;;;;21.20;13.35;;;10.90;99.90;;;;;;5059145;28;20038;-93
2023/04/30 07:37:12;;;;;;;21.20;13.55;;;11.00;99.90;;;;;;5052812;28;20476;-92
2023/04/30 07:39:38;;;;;;;19.85;12.77;;;11.10;99.90;;;;;;5058651;28;20491;-91
2023/04/30 07:42:06;;;;;;;24.25;12.85;;;11.10;99.90;;;;;;5071577;28;20088;-91
2023/04/30 07:44:31;;;;;;;22.38;13.35;;;11.30;99.90;;;;;;5059720;28;20032;-90
2023/04/30 07:46:57;;;;;;;19.25;12.30;;;11.50;99.90;;;;;;5048786;28;20380;-92
2023/04/30 07:49:24;;;;;;;22.05;12.43;;;11.60;99.90;;;;;;5055942;28;20027;-91
2023/04/30 07:51:50;;;;;;;21.58;12.48;;;11.70;99.90;;;;;;5051133;28;20028;-92
2023/04/30 07:54:15;;;;;;;21.30;12.32;;;11.70;99.90;;;;;;5060459;28;20476;-92
2023/04/30 07:56:41;;;;;;;18.55;12.30;;;11.70;99.90;;;;;;5044264;28;20036;-92
2023/04/30 07:59:07;;;;;;;19.27;12.25;;;11.80;99.90;;;;;;5059852;28;20028;-91
2023/04/30 08:01:33;;;;;;;18.67;11.18;;;11.90;99.90;;;;;;5052056;28;20033;-92
2023/04/30 08:03:59;;;;;;;21.05;11.15;;;11.90;99.90;;;;;;5059589;28;20034;-91
2023/04/30 08:06:26;;;;;;;18.63;11.30;;;11.80;99.90;;;;;;5059038;28;20017;-92
2023/04/30 08:08:52;;;;;;;16.23;10.73;;;11.90;99.90;;;;;;5050811;28;20040;-92
2023/04/30 08:11:18;;;;;;;20.15;11.73;;;12.00;99.90;;;;;;5054998;28;20055;-92
2023/04/30 08:13:44;;;;;;;19.45;11.48;;;12.10;99.90;;;;;;5058754;28;20028;-91
2023/04/30 08:16:09;;;;;;;20.00;11.77;;;12.10;99.90;;;;;;5057042;28;20035;-91
2023/04/30 08:18:37;;;;;;;14.45;10.25;;;12.20;99.90;;;;;;5045231;28;20035;-91
2023/04/30 08:21:04;;;;;;;14.32;9.88;;;12.30;99.90;;;;;;5052899;28;20021;-92
2023/04/30 08:23:30;;;;;;;16.52;10.70;;;12.40;99.90;;;;;;5058600;28;20051;-92
2023/04/30 08:25:56;;;;;;;16.15;10.38;;;12.50;99.90;;;;;;5057522;28;20025;-92
2023/04/30 08:28:22;;;;;;;25.52;10.73;;;12.80;99.90;;;;;;5063671;28;20108;-91
2023/04/30 08:30:47;;;;;;;21.25;10.23;;;13.10;99.90;;;;;;5052254;28;20033;-92
2023/04/30 08:33:13;;;;;;;14.23;10.02;;;13.30;99.90;;;;;;5054056;28;20376;-91
2023/04/30 08:35:39;;;;;;;17.25;10.65;;;13.70;99.90;;;;;;5055574;28;20032;-94
2023/04/30 08:38:05;;;;;;;17.02;10.38;;;13.60;99.90;;;;;;5058614;28;20029;-92
2023/04/30 08:40:35;;;;;;;14.55;9.68;;;13.30;99.90;;;;;;5057417;28;20040;-91
2023/04/30 08:43:10;;;;;;;15.70;8.93;;;13.30;99.90;;;;;;5068797;28;20029;-91
2023/04/30 08:45:36;;;;;;;17.17;8.13;;;13.70;99.90;;;;;;5055814;28;20032;-92
2023/04/30 08:48:03;;;;;;;15.48;8.82;;;15.30;99.90;;;;;;5051239;28;20020;-91
2023/04/30 08:50:30;;;;;;;16.55;9.48;;;16.00;99.90;;;;;;5055683;28;20074;-91
2023/04/30 08:53:00;;;;;;;14.77;7.28;;;15.60;99.90;;;;;;5053007;28;20029;-91
2023/04/30 08:55:26;;;;;;;12.32;7.40;;;15.50;99.90;;;;;;5050702;28;20608;-91
2023/04/30 08:57:52;;;;;;;12.57;8.60;;;15.40;99.90;;;;;;5056865;28;20365;-90
2023/04/30 09:00:18;;;;;;;14.60;8.13;;;15.00;99.90;;;;;;5060430;28;20078;-91
2023/04/30 09:02:45;;;;;;;12.40;8.57;;;16.10;99.90;;;;;;5045750;28;20036;-90
2023/04/30 09:05:13;;;;;;;10.50;7.63;;;16.90;99.90;;;;;;5068737;28;20111;-90
2023/04/30 09:07:43;;;;;;;11.90;8.55;;;16.50;99.90;;;;;;5052306;28;20027;-92
2023/04/30 09:10:18;;;;;;;10.60;7.03;;;15.70;99.90;;;;;;5050588;28;20029;-91
2023/04/30 09:13:06;;;;;;;9.95;6.95;;;15.50;99.90;;;;;;5056649;28;20451;-91
2023/04/30 09:15:34;;;;;;;9.07;7.18;;;15.20;99.90;;;;;;5065118;28;20032;-90
2023/04/30 09:18:12;;;;;;;15.20;7.57;;;15.10;99.90;;;;;;5056875;28;20187;-91
2023/04/30 09:20:52;;;;;;;12.00;6.38;;;15.10;99.90;;;;;;5055190;28;20101;-91
2023/04/30 09:23:17;;;;;;;11.10;6.65;;;15.10;99.90;;;;;;5073145;28;20762;-90
2023/04/30 09:25:43;;;;;;;9.80;5.70;;;14.70;99.90;;;;;;5077370;28;20047;-92
2023/04/30 09:28:13;;;;;;;10.55;5.45;;;15.00;99.90;;;;;;5061506;28;20051;-91
2023/04/30 09:30:40;;;;;;;7.10;5.35;;;15.00;99.90;;;;;;5059749;28;20126;-91
2023/04/30 09:33:06;;;;;;;11.50;5.95;;;16.10;99.90;;;;;;5061204;28;20047;-92
2023/04/30 09:35:37;;;;;;;11.88;5.95;;;17.50;99.90;;;;;;5059792;28;20032;-92
2023/04/30 09:38:04;;;;;;;7.45;5.47;;;17.90;99.90;;;;;;5051523;28;20028;-91
2023/04/30 09:40:41;;;;;;;8.00;6.13;;;17.10;99.90;;;;;;5059490;28;20024;-91
2023/04/30 09:43:07;;;;;;;13.38;6.88;;;16.30;99.90;;;;;;5053472;28;20032;-91
2023/04/30 09:45:48;;;;;;;13.20;7.22;;;16.10;99.90;;;;;;5059104;28;20034;-91
2023/04/30 09:48:23;;;;;;;8.52;6.15;;;16.00;99.90;;;;;;5053019;28;20025;-90
2023/04/30 09:50:50;;;;;;;14.40;7.28;;;15.80;99.90;;;;;;5060309;28;20082;-90
2023/04/30 09:53:17;;;;;;;9.43;6.82;;;15.80;99.90;;;;;;5057767;28;20057;-92
2023/04/30 09:55:44;;;;;;;14.55;10.00;;;15.70;99.90;;;;;;5061047;28;20063;-92
2023/04/30 09:58:11;;;;;;;9.45;6.85;;;15.70;99.90;;;;;;5057409;28;20029;-92
2023/04/30 10:00:38;;;;;;;10.05;6.53;;;15.90;99.90;;;;;;5058906;28;20035;-92
2023/04/30 10:03:10;;;;;;;10.73;6.57;;;16.30;99.90;;;;;;5061562;28;20024;-92
2023/04/30 10:05:47;;;;;;;9.77;6.20;;;16.70;99.90;;;;;;5061221;28;20028;-93
2023/04/30 10:08:32;;;;;;;12.57;6.47;;;16.80;99.90;;;;;;5060902;28;20024;-93
2023/04/30 10:11:02;;;;;;;10.95;6.70;;;16.60;99.90;;;;;;5057527;28;20075;-92
2023/04/30 10:13:32;;;;;;;10.05;6.78;;;16.50;99.90;;;;;;5057908;28;20085;-93
2023/04/30 10:16:03;;;;;;;9.32;6.32;;;16.20;99.90;;;;;;5076954;28;20464;-92
2023/04/30 10:18:38;;;;;;;8.07;5.55;;;16.20;99.90;;;;;;5060442;28;20036;-93
2023/04/30 10:21:11;;;;;;;10.98;6.15;;;16.20;99.90;;;;;;5064256;28;20032;-92
2023/04/30 10:23:42;;;;;;;11.00;5.95;;;16.50;99.90;;;;;;5065249;28;20068;-93
2023/04/30 10:26:15;;;;;;;8.70;5.55;;;16.30;99.90;;;;;;5071205;28;20483;-92
2023/04/30 10:28:41;;;;;;;6.47;5.35;;;15.90;99.90;;;;;;5040921;28;20043;-93
2023/04/30 10:31:12;;;;;;;8.02;5.70;;;15.70;99.90;;;;;;5048294;28;20025;-92
2023/04/30 10:34:19;;;;;;;10.73;5.50;;;15.60;99.90;;;;;;5069100;28;20032;-92
2023/04/30 10:36:47;;;;;;;6.75;5.35;;;15.40;99.90;;;;;;5053834;28;20040;-91
2023/04/30 10:39:20;;;;;;;6.70;5.20;;;15.50;99.90;;;;;;5040741;28;20431;-92
2023/04/30 10:41:47;;;;;;;14.95;5.85;;;15.60;99.90;;;;;;5052648;28;20476;-92
2023/04/30 10:44:13;;;;;;;9.32;5.35;;;15.50;99.90;;;;;;5055045;28;20074;-93
2023/04/30 10:46:39;;;;;;;8.00;5.10;;;15.90;99.90;;;;;;5060144;28;20487;-93
2023/04/30 10:49:06;;;;;;;8.40;4.78;;;16.50;99.90;;;;;;5060676;28;20078;-94
2023/04/30 10:51:59;;;;;;;6.80;4.57;;;17.30;99.90;;;;;;5059026;28;20052;-94
2023/04/30 10:54:30;;;;;;;10.40;5.30;;;17.80;99.90;;;;;;5053616;28;20040;-93
2023/04/30 10:57:13;;;;;;;9.18;5.32;;;17.70;99.90;;;;;;5059954;28;20499;-93
2023/04/30 11:00:08;;;;;;;6.45;4.85;;;17.40;99.90;;;;;;5060023;28;20044;-93
2023/04/30 11:02:42;;;;;;;8.05;4.78;;;16.80;99.90;;;;;;5042837;28;20039;-92
2023/04/30 11:05:16;;;;;;;10.80;5.93;;;16.30;99.90;;;;;;5047341;28;20387;-92
2023/04/30 11:07:55;;;;;;;6.97;5.25;;;16.30;99.90;;;;;;5058153;28;20028;-92
2023/04/30 11:10:23;;;;;;;9.13;4.50;;;16.80;99.90;;;;;;5054920;28;20075;-92
2023/04/30 11:12:54;;;;;;;9.07;5.35;;;17.20;99.90;;;;;;5058305;28;20036;-91
2023/04/30 11:15:23;;;;;;;;;;;17.30;99.90;;;;;;5056078;28;20055;-91
2023/04/30 11:17:49;;;;;;;11.88;5.50;;;17.30;99.90;;;;;;5057620;28;19915;-92
2023/04/30 11:20:20;;;;;;;6.85;4.43;;;17.50;99.90;;;;;;5070247;28;20033;-93
2023/04/30 11:22:46;;;;;;;9.10;4.33;;;17.80;99.90;;;;;;5064873;28;20471;-91
2023/04/30 11:25:12;;;;;;;7.38;4.20;;;17.50;99.80;;;;;;5051300;28;20255;-92
2023/04/30 11:27:43;;;;;;;7.75;4.10;;;17.50;99.90;;;;;;5057876;28;20060;-91
2023/04/30 11:30:16;;;;;;;7.22;5.25;;;18.10;99.90;;;;;;5061858;28;20035;-93
2023/04/30 11:32:46;;;;;;;6.88;3.85;;;18.40;98.90;;;;;;5056299;28;20116;-92
2023/04/30 11:35:12;;;;;;;10.25;4.35;;;19.10;96.20;;;;;;5050175;28;20024;-91
2023/04/30 11:37:42;;;;;;;4.47;3.92;;;18.80;96.90;;;;;;5057312;28;20024;-92
2023/04/30 11:40:10;;;;;;;6.50;4.68;;;17.70;96.80;;;;;;5058237;28;20103;-92
2023/04/30 11:42:42;;;;;;;7.57;4.80;;;17.10;99.10;;;;;;5073166;28;20471;-92
2023/04/30 11:45:08;;;;;;;6.65;4.18;;;16.90;99.90;;;;;;5055739;28;20037;-93
2023/04/30 11:47:49;;;;;;;8.13;4.85;;;17.00;99.90;;;;;;5052194;28;20056;-93
2023/04/30 11:50:25;;;;;;;5.63;4.57;;;17.20;99.90;;;;;;5070494;28;20029;-92
2023/04/30 11:52:52;;;;;;;5.72;4.07;;;17.00;99.90;;;;;;5058603;28;20037;-92
2023/04/30 11:55:20;;;;;;;7.50;4.60;;;16.90;99.90;;;;;;5058748;28;20444;-92
2023/04/30 11:57:53;;;;;;;8.57;4.72;;;17.00;99.90;;;;;;5062504;28;20063;-93
2023/04/30 12:00:21;;;;;;;9.77;4.90;;;17.00;98.50;;;;;;5066906;28;20143;-92
2023/04/30 12:02:48;;;;;;;6.72;4.53;;;17.00;99.90;;;;;;5056797;28;20364;-93
2023/04/30 12:05:25;;;;;;;7.65;3.97;;;17.40;99.90;;;;;;5069006;28;20043;-92
2023/04/30 12:07:56;;;;;;;5.00;3.97;;;17.50;98.60;;;;;;5056094;28;20479;-92
2023/04/30 12:10:23;;;;;;;;;;;17.90;99.90;;;;;;5053833;28;20028;-91
2023/04/30 12:12:50;;;;;;;6.97;3.80;;;18.30;98.60;;;;;;5052685;28;20296;-92
2023/04/30 12:15:18;;;;;;;7.18;4.20;;;18.60;97.90;;;;;;5053080;28;20123;-91
2023/04/30 12:17:45;;;;;;;9.32;4.15;;;18.70;99.10;;;;;;5067425;28;20013;-93
2023/04/30 12:20:13;;;;;;;6.18;4.20;;;19.00;97.20;;;;;;5059018;28;20499;-93
2023/04/30 12:22:42;;;;;;;7.28;3.67;;;18.60;96.40;;;;;;5056391;28;20049;-93
2023/04/30 12:25:12;;;;;;;6.55;4.28;;;18.00;96.20;;;;;;5070542;28;20027;-92
2023/04/30 12:27:45;;;;;;;5.32;4.20;;;16.90;99.00;;;;;;5072590;28;20020;-92
2023/04/30 12:30:18;;;;;;;6.72;4.03;;;16.30;99.90;;;;;;5063592;28;20033;-92
2023/04/30 12:32:47;;;;;;;4.53;3.40;;;16.00;99.90;;;;;;5057249;28;20120;-92
2023/04/30 12:35:15;;;;;;;7.60;3.70;;;16.20;99.90;;;;;;5051387;28;20032;-92
2023/04/30 12:37:51;;;;;;;5.85;3.60;;;16.80;99.80;;;;;;5052856;28;20029;-93
2023/04/30 12:40:21;;;;;;;7.45;3.53;;;17.70;99.90;;;;;;5069492;28;20066;-93
2023/04/30 12:42:47;;;;;;;6.03;3.63;;;18.30;97.30;;;;;;5058536;28;20108;-92
2023/04/30 12:45:33;;;;;;;6.93;3.85;;;19.00;96.00;;;;;;5056265;28;20421;-93
2023/04/30 12:47:59;;;;;;;8.20;3.28;;;19.20;95.50;;;;;;5063634;28;20025;-92
2023/04/30 12:50:25;;;;;;;3.78;3.28;;;18.00;96.60;;;;;;5052551;28;20038;-93